KVTN/VTN METAR and TAF weather

Enter ICAO airport designator
Station Type Date Time Source
KVTN METAR 2021/09/28 15:52 UTC NOAA

KVTN 281552Z AUTO 10003KT 10SM CLR 26/13 A2981 RMK AO2 SLP070 T02560128


Station Type Date Time Source
KVTN Decoded METAR 2021/09/28 15:52 UTC NOAA

MILLER FIELD - VALENTINE, NE, NE, United States (KVTN) 42-52N 100-33W 788M
Sep 28, 2021 - 11:52 AM EDT / 2021.09.28 1552 UTC
Wind: from the E (100 degrees) at 3 MPH (3 KT):0
Visibility: 10 mile(s):0
Sky conditions: clear
Temperature: 78.1 F (25.6 C)
Dew Point: 55.0 F (12.8 C)
Relative Humidity: 45%
Pressure (altimeter): 29.81 in. Hg (1009 hPa)
ob: KVTN 281552Z AUTO 10003KT 10SM CLR 26/13 A2981 RMK AO2 SLP070 T02560128
cycle: 16

Station Type Date Time Source
KVTN TAF 2021/09/28 12:22 UTC NOAA

TAF KVTN 281120Z 2812/2912 19005KT P6SM FEW250
FM281600 16013G19KT P6SM FEW250
FM281900 16019G27KT P6SM SCT250
FM290000 16014G21KT P6SM BKN200
FM290600 17011KT P6SM BKN080

Example: see airport list